sensor_id;sensor_type;location;lat;lon;timestamp;P1;durP1;ratioP1;P2;durP2;ratioP2
13847;SDS011;6994;49.752;6.094;2023-03-01T00:01:18;7.57;;;5.72;;
13847;SDS011;6994;49.752;6.094;2023-03-01T00:03:44;8.02;;;5.80;;
13847;SDS011;6994;49.752;6.094;2023-03-01T00:06:11;11.02;;;6.00;;
13847;SDS011;6994;49.752;6.094;2023-03-01T00:08:38;5.22;;;4.70;;
13847;SDS011;6994;49.752;6.094;2023-03-01T00:13:33;7.65;;;4.93;;
13847;SDS011;6994;49.752;6.094;2023-03-01T00:16:03;5.87;;;5.25;;
13847;SDS011;6994;49.752;6.094;2023-03-01T00:18:33;5.50;;;4.87;;
13847;SDS011;6994;49.752;6.094;2023-03-01T00:21:01;9.07;;;5.07;;
13847;SDS011;6994;49.752;6.094;2023-03-01T00:23:28;6.62;;;5.10;;
13847;SDS011;6994;49.752;6.094;2023-03-01T00:25:56;8.43;;;5.37;;
13847;SDS011;6994;49.752;6.094;2023-03-01T00:28:24;8.98;;;6.12;;
13847;SDS011;6994;49.752;6.094;2023-03-01T00:30:52;10.05;;;5.70;;
13847;SDS011;6994;49.752;6.094;2023-03-01T00:33:19;9.30;;;5.43;;
13847;SDS011;6994;49.752;6.094;2023-03-01T00:35:46;7.62;;;5.50;;
13847;SDS011;6994;49.752;6.094;2023-03-01T00:38:13;7.32;;;5.37;;
13847;SDS011;6994;49.752;6.094;2023-03-01T00:40:41;8.93;;;6.05;;
13847;SDS011;6994;49.752;6.094;2023-03-01T00:43:08;6.35;;;5.25;;
13847;SDS011;6994;49.752;6.094;2023-03-01T00:45:35;9.05;;;6.37;;
13847;SDS011;6994;49.752;6.094;2023-03-01T00:48:02;6.57;;;5.53;;
13847;SDS011;6994;49.752;6.094;2023-03-01T00:50:29;9.32;;;6.18;;
13847;SDS011;6994;49.752;6.094;2023-03-01T00:52:57;6.97;;;5.70;;
13847;SDS011;6994;49.752;6.094;2023-03-01T00:55:24;10.63;;;6.22;;
13847;SDS011;6994;49.752;6.094;2023-03-01T00:57:51;10.00;;;5.32;;
13847;SDS011;6994;49.752;6.094;2023-03-01T01:00:19;7.80;;;5.00;;
13847;SDS011;6994;49.752;6.094;2023-03-01T01:02:46;7.40;;;6.07;;
13847;SDS011;6994;49.752;6.094;2023-03-01T01:05:13;7.80;;;5.70;;
13847;SDS011;6994;49.752;6.094;2023-03-01T01:07:41;6.30;;;5.50;;
13847;SDS011;6994;49.752;6.094;2023-03-01T01:10:08;8.45;;;6.37;;
13847;SDS011;6994;49.752;6.094;2023-03-01T01:12:35;12.10;;;8.25;;
13847;SDS011;6994;49.752;6.094;2023-03-01T01:15:03;9.00;;;6.62;;
13847;SDS011;6994;49.752;6.094;2023-03-01T01:17:30;8.77;;;6.30;;
13847;SDS011;6994;49.752;6.094;2023-03-01T01:19:58;7.18;;;6.00;;
13847;SDS011;6994;49.752;6.094;2023-03-01T01:22:26;7.50;;;6.68;;
13847;SDS011;6994;49.752;6.094;2023-03-01T01:24:54;6.80;;;5.97;;
13847;SDS011;6994;49.752;6.094;2023-03-01T01:27:22;9.98;;;6.80;;
13847;SDS011;6994;49.752;6.094;2023-03-01T01:29:49;10.27;;;8.63;;
13847;SDS011;6994;49.752;6.094;2023-03-01T01:32:16;10.83;;;8.43;;
13847;SDS011;6994;49.752;6.094;2023-03-01T01:34:43;10.43;;;6.85;;
13847;SDS011;6994;49.752;6.094;2023-03-01T01:37:10;9.73;;;7.63;;
13847;SDS011;6994;49.752;6.094;2023-03-01T01:39:38;7.55;;;6.32;;
13847;SDS011;6994;49.752;6.094;2023-03-01T01:42:05;6.70;;;5.65;;
13847;SDS011;6994;49.752;6.094;2023-03-01T01:44:33;8.18;;;6.43;;
13847;SDS011;6994;49.752;6.094;2023-03-01T01:52:19;6.97;;;5.87;;
13847;SDS011;6994;49.752;6.094;2023-03-01T01:54:51;8.63;;;6.80;;
13847;SDS011;6994;49.752;6.094;2023-03-01T01:57:22;8.38;;;6.15;;
13847;SDS011;6994;49.752;6.094;2023-03-01T01:59:50;6.62;;;5.15;;
13847;SDS011;6994;49.752;6.094;2023-03-01T02:02:18;7.65;;;6.12;;
13847;SDS011;6994;49.752;6.094;2023-03-01T02:04:46;7.78;;;5.85;;
13847;SDS011;6994;49.752;6.094;2023-03-01T02:07:14;7.55;;;5.80;;
13847;SDS011;6994;49.752;6.094;2023-03-01T02:09:41;9.88;;;6.57;;
13847;SDS011;6994;49.752;6.094;2023-03-01T02:12:07;11.93;;;6.15;;
13847;SDS011;6994;49.752;6.094;2023-03-01T02:14:34;6.30;;;5.53;;
13847;SDS011;6994;49.752;6.094;2023-03-01T02:17:02;10.38;;;6.65;;
13847;SDS011;6994;49.752;6.094;2023-03-01T02:19:45;10.43;;;6.82;;
13847;SDS011;6994;49.752;6.094;2023-03-01T02:22:18;7.50;;;5.55;;
13847;SDS011;6994;49.752;6.094;2023-03-01T02:24:47;8.65;;;6.40;;
13847;SDS011;6994;49.752;6.094;2023-03-01T02:27:15;9.75;;;6.65;;
13847;SDS011;6994;49.752;6.094;2023-03-01T02:29:42;8.75;;;6.12;;
13847;SDS011;6994;49.752;6.094;2023-03-01T02:32:10;6.95;;;6.25;;
13847;SDS011;6994;49.752;6.094;2023-03-01T02:34:38;8.30;;;6.80;;
13847;SDS011;6994;49.752;6.094;2023-03-01T02:37:14;9.63;;;6.55;;
13847;SDS011;6994;49.752;6.094;2023-03-01T02:39:39;9.27;;;6.62;;
13847;SDS011;6994;49.752;6.094;2023-03-01T02:42:06;11.12;;;6.68;;
13847;SDS011;6994;49.752;6.094;2023-03-01T02:44:34;12.25;;;6.22;;
13847;SDS011;6994;49.752;6.094;2023-03-01T02:47:01;9.45;;;7.03;;
13847;SDS011;6994;49.752;6.094;2023-03-01T02:49:29;10.45;;;7.00;;
13847;SDS011;6994;49.752;6.094;2023-03-01T02:52:00;8.18;;;6.62;;
13847;SDS011;6994;49.752;6.094;2023-03-01T02:54:38;9.68;;;6.70;;
13847;SDS011;6994;49.752;6.094;2023-03-01T02:57:02;13.27;;;6.82;;
13847;SDS011;6994;49.752;6.094;2023-03-01T02:59:30;9.57;;;6.95;;
13847;SDS011;6994;49.752;6.094;2023-03-01T03:01:57;8.55;;;6.72;;
13847;SDS011;6994;49.752;6.094;2023-03-01T03:04:25;8.73;;;6.53;;
13847;SDS011;6994;49.752;6.094;2023-03-01T03:06:52;10.68;;;6.43;;
13847;SDS011;6994;49.752;6.094;2023-03-01T03:09:19;9.30;;;6.68;;
13847;SDS011;6994;49.752;6.094;2023-03-01T03:11:48;8.20;;;6.70;;
13847;SDS011;6994;49.752;6.094;2023-03-01T03:14:16;9.75;;;7.07;;
13847;SDS011;6994;49.752;6.094;2023-03-01T03:16:43;11.67;;;10.27;;
13847;SDS011;6994;49.752;6.094;2023-03-01T03:19:10;13.00;;;9.65;;
13847;SDS011;6994;49.752;6.094;2023-03-01T03:21:37;9.95;;;8.20;;
13847;SDS011;6994;49.752;6.094;2023-03-01T03:24:04;11.10;;;7.93;;
13847;SDS011;6994;49.752;6.094;2023-03-01T03:26:31;12.45;;;8.52;;
13847;SDS011;6994;49.752;6.094;2023-03-01T03:28:59;10.55;;;8.70;;
13847;SDS011;6994;49.752;6.094;2023-03-01T03:31:26;12.13;;;8.60;;
13847;SDS011;6994;49.752;6.094;2023-03-01T03:33:53;12.45;;;8.35;;
13847;SDS011;6994;49.752;6.094;2023-03-01T03:36:22;12.20;;;10.90;;
13847;SDS011;6994;49.752;6.094;2023-03-01T03:38:48;11.23;;;7.85;;
13847;SDS011;6994;49.752;6.094;2023-03-01T03:41:16;10.43;;;7.62;;
13847;SDS011;6994;49.752;6.094;2023-03-01T03:43:42;10.63;;;8.18;;
13847;SDS011;6994;49.752;6.094;2023-03-01T03:46:10;16.40;;;8.65;;
13847;SDS011;6994;49.752;6.094;2023-03-01T03:48:39;14.02;;;8.68;;
13847;SDS011;6994;49.752;6.094;2023-03-01T03:51:04;10.98;;;6.78;;
13847;SDS011;6994;49.752;6.094;2023-03-01T03:53:34;11.02;;;7.95;;
13847;SDS011;6994;49.752;6.094;2023-03-01T03:56:01;10.82;;;7.95;;
13847;SDS011;6994;49.752;6.094;2023-03-01T03:58:28;10.38;;;7.10;;
13847;SDS011;6994;49.752;6.094;2023-03-01T04:00:56;11.25;;;7.60;;
13847;SDS011;6994;49.752;6.094;2023-03-01T04:03:23;9.15;;;7.28;;
13847;SDS011;6994;49.752;6.094;2023-03-01T04:05:50;9.73;;;7.72;;
13847;SDS011;6994;49.752;6.094;2023-03-01T04:08:18;11.70;;;10.50;;
13847;SDS011;6994;49.752;6.094;2023-03-01T04:10:50;14.13;;;8.75;;
13847;SDS011;6994;49.752;6.094;2023-03-01T04:13:17;13.88;;;8.57;;
13847;SDS011;6994;49.752;6.094;2023-03-01T04:15:42;12.00;;;7.97;;
13847;SDS011;6994;49.752;6.094;2023-03-01T04:18:12;13.85;;;7.85;;
13847;SDS011;6994;49.752;6.094;2023-03-01T04:20:39;10.00;;;8.32;;
13847;SDS011;6994;49.752;6.094;2023-03-01T04:23:07;10.90;;;8.45;;
13847;SDS011;6994;49.752;6.094;2023-03-01T04:25:45;11.77;;;8.07;;
13847;SDS011;6994;49.752;6.094;2023-03-01T04:28:09;13.82;;;8.60;;
13847;SDS011;6994;49.752;6.094;2023-03-01T04:30:37;11.38;;;7.30;;
13847;SDS011;6994;49.752;6.094;2023-03-01T04:33:06;10.85;;;7.45;;
13847;SDS011;6994;49.752;6.094;2023-03-01T04:35:35;11.23;;;8.45;;
13847;SDS011;6994;49.752;6.094;2023-03-01T04:38:03;11.35;;;8.63;;
13847;SDS011;6994;49.752;6.094;2023-03-01T04:40:30;17.12;;;8.02;;
13847;SDS011;6994;49.752;6.094;2023-03-01T04:42:58;11.75;;;8.32;;
13847;SDS011;6994;49.752;6.094;2023-03-01T04:45:25;11.57;;;8.15;;
13847;SDS011;6994;49.752;6.094;2023-03-01T04:47:53;11.88;;;7.68;;
13847;SDS011;6994;49.752;6.094;2023-03-01T04:50:20;8.82;;;7.30;;
13847;SDS011;6994;49.752;6.094;2023-03-01T04:52:47;12.25;;;7.10;;
13847;SDS011;6994;49.752;6.094;2023-03-01T04:55:14;9.38;;;7.35;;
13847;SDS011;6994;49.752;6.094;2023-03-01T04:57:41;10.07;;;7.37;;
13847;SDS011;6994;49.752;6.094;2023-03-01T05:00:10;11.18;;;7.43;;
13847;SDS011;6994;49.752;6.094;2023-03-01T05:02:36;11.38;;;7.70;;
13847;SDS011;6994;49.752;6.094;2023-03-01T05:05:03;10.77;;;8.65;;
13847;SDS011;6994;49.752;6.094;2023-03-01T05:07:30;11.50;;;8.23;;
13847;SDS011;6994;49.752;6.094;2023-03-01T05:09:58;13.18;;;10.65;;
13847;SDS011;6994;49.752;6.094;2023-03-01T05:12:25;11.20;;;8.52;;
13847;SDS011;6994;49.752;6.094;2023-03-01T05:14:52;10.60;;;7.45;;
13847;SDS011;6994;49.752;6.094;2023-03-01T05:17:19;12.60;;;10.20;;
13847;SDS011;6994;49.752;6.094;2023-03-01T05:19:46;12.23;;;10.40;;
13847;SDS011;6994;49.752;6.094;2023-03-01T05:22:14;10.52;;;8.25;;
13847;SDS011;6994;49.752;6.094;2023-03-01T05:24:41;9.52;;;8.13;;
13847;SDS011;6994;49.752;6.094;2023-03-01T05:27:08;54.00;;;21.73;;
13847;SDS011;6994;49.752;6.094;2023-03-01T05:29:35;15.57;;;11.90;;
13847;SDS011;6994;49.752;6.094;2023-03-01T05:32:03;29.75;;;16.33;;
13847;SDS011;6994;49.752;6.094;2023-03-01T05:34:31;15.05;;;10.23;;
13847;SDS011;6994;49.752;6.094;2023-03-01T05:36:57;12.15;;;9.18;;
13847;SDS011;6994;49.752;6.094;2023-03-01T05:39:25;11.15;;;9.30;;
13847;SDS011;6994;49.752;6.094;2023-03-01T05:41:52;15.70;;;11.07;;
13847;SDS011;6994;49.752;6.094;2023-03-01T05:44:19;13.52;;;11.10;;
13847;SDS011;6994;49.752;6.094;2023-03-01T05:46:46;10.50;;;8.82;;
13847;SDS011;6994;49.752;6.094;2023-03-01T05:49:14;15.95;;;10.13;;
13847;SDS011;6994;49.752;6.094;2023-03-01T05:51:42;15.77;;;9.30;;
13847;SDS011;6994;49.752;6.094;2023-03-01T05:54:09;11.00;;;8.38;;
13847;SDS011;6994;49.752;6.094;2023-03-01T05:56:36;12.27;;;7.70;;
13847;SDS011;6994;49.752;6.094;2023-03-01T05:59:03;15.00;;;9.13;;
13847;SDS011;6994;49.752;6.094;2023-03-01T06:01:32;16.73;;;10.57;;
13847;SDS011;6994;49.752;6.094;2023-03-01T06:03:59;12.55;;;9.00;;
13847;SDS011;6994;49.752;6.094;2023-03-01T06:06:26;14.57;;;10.05;;
13847;SDS011;6994;49.752;6.094;2023-03-01T06:08:53;12.75;;;8.68;;
13847;SDS011;6994;49.752;6.094;2023-03-01T06:11:21;12.35;;;8.82;;
13847;SDS011;6994;49.752;6.094;2023-03-01T06:13:48;12.85;;;8.73;;
13847;SDS011;6994;49.752;6.094;2023-03-01T06:16:15;12.85;;;8.98;;
13847;SDS011;6994;49.752;6.094;2023-03-01T06:18:43;12.37;;;9.25;;
13847;SDS011;6994;49.752;6.094;2023-03-01T06:21:11;16.58;;;9.05;;
13847;SDS011;6994;49.752;6.094;2023-03-01T06:23:39;12.95;;;8.65;;
13847;SDS011;6994;49.752;6.094;2023-03-01T06:26:07;9.68;;;7.72;;
13847;SDS011;6994;49.752;6.094;2023-03-01T06:28:34;12.43;;;9.07;;
13847;SDS011;6994;49.752;6.094;2023-03-01T06:31:01;12.65;;;9.00;;
13847;SDS011;6994;49.752;6.094;2023-03-01T06:33:28;15.07;;;10.05;;
13847;SDS011;6994;49.752;6.094;2023-03-01T06:35:56;12.63;;;8.90;;
13847;SDS011;6994;49.752;6.094;2023-03-01T06:38:23;11.43;;;8.25;;
13847;SDS011;6994;49.752;6.094;2023-03-01T06:40:53;14.80;;;9.95;;
13847;SDS011;6994;49.752;6.094;2023-03-01T06:43:23;14.23;;;9.30;;
13847;SDS011;6994;49.752;6.094;2023-03-01T06:45:50;11.98;;;8.85;;
13847;SDS011;6994;49.752;6.094;2023-03-01T06:48:17;11.48;;;8.32;;
13847;SDS011;6994;49.752;6.094;2023-03-01T06:50:44;11.70;;;8.20;;
13847;SDS011;6994;49.752;6.094;2023-03-01T06:53:12;16.12;;;9.35;;
13847;SDS011;6994;49.752;6.094;2023-03-01T06:55:39;12.23;;;8.55;;
13847;SDS011;6994;49.752;6.094;2023-03-01T06:58:06;15.37;;;11.90;;
13847;SDS011;6994;49.752;6.094;2023-03-01T07:00:37;17.85;;;10.60;;
13847;SDS011;6994;49.752;6.094;2023-03-01T07:03:01;12.93;;;9.40;;
13847;SDS011;6994;49.752;6.094;2023-03-01T07:05:28;11.57;;;9.70;;
13847;SDS011;6994;49.752;6.094;2023-03-01T07:07:55;13.23;;;9.15;;
13847;SDS011;6994;49.752;6.094;2023-03-01T07:10:23;12.55;;;8.23;;
13847;SDS011;6994;49.752;6.094;2023-03-01T07:12:49;12.98;;;8.73;;
13847;SDS011;6994;49.752;6.094;2023-03-01T07:15:17;15.43;;;12.23;;
13847;SDS011;6994;49.752;6.094;2023-03-01T07:17:44;14.52;;;9.90;;
13847;SDS011;6994;49.752;6.094;2023-03-01T07:20:11;13.43;;;9.70;;
13847;SDS011;6994;49.752;6.094;2023-03-01T07:22:41;14.87;;;10.35;;
13847;SDS011;6994;49.752;6.094;2023-03-01T07:25:09;12.73;;;9.15;;
13847;SDS011;6994;49.752;6.094;2023-03-01T07:27:35;13.88;;;10.02;;
13847;SDS011;6994;49.752;6.094;2023-03-01T07:30:03;17.60;;;10.52;;
13847;SDS011;6994;49.752;6.094;2023-03-01T07:32:30;12.63;;;8.98;;
13847;SDS011;6994;49.752;6.094;2023-03-01T07:34:57;14.17;;;11.70;;
13847;SDS011;6994;49.752;6.094;2023-03-01T07:37:24;14.52;;;10.02;;
13847;SDS011;6994;49.752;6.094;2023-03-01T07:39:52;14.55;;;9.82;;
13847;SDS011;6994;49.752;6.094;2023-03-01T07:42:19;13.43;;;9.52;;
13847;SDS011;6994;49.752;6.094;2023-03-01T07:44:46;12.25;;;9.35;;
13847;SDS011;6994;49.752;6.094;2023-03-01T07:47:13;11.98;;;9.02;;
13847;SDS011;6994;49.752;6.094;2023-03-01T07:49:40;13.45;;;8.20;;
13847;SDS011;6994;49.752;6.094;2023-03-01T07:52:09;13.93;;;12.20;;
13847;SDS011;6994;49.752;6.094;2023-03-01T07:54:35;15.07;;;10.93;;
13847;SDS011;6994;49.752;6.094;2023-03-01T07:57:02;15.32;;;10.00;;
13847;SDS011;6994;49.752;6.094;2023-03-01T07:59:30;13.68;;;9.85;;
13847;SDS011;6994;49.752;6.094;2023-03-01T08:01:58;11.90;;;9.38;;
13847;SDS011;6994;49.752;6.094;2023-03-01T08:04:25;12.77;;;9.95;;
13847;SDS011;6994;49.752;6.094;2023-03-01T08:06:53;17.25;;;10.13;;
13847;SDS011;6994;49.752;6.094;2023-03-01T08:09:20;15.50;;;13.10;;
13847;SDS011;6994;49.752;6.094;2023-03-01T08:11:47;23.17;;;11.20;;
13847;SDS011;6994;49.752;6.094;2023-03-01T08:14:14;12.37;;;9.18;;
13847;SDS011;6994;49.752;6.094;2023-03-01T08:16:41;14.73;;;10.13;;
13847;SDS011;6994;49.752;6.094;2023-03-01T08:19:09;14.50;;;12.40;;
13847;SDS011;6994;49.752;6.094;2023-03-01T08:21:36;15.85;;;10.65;;
13847;SDS011;6994;49.752;6.094;2023-03-01T08:24:03;17.42;;;10.27;;
13847;SDS011;6994;49.752;6.094;2023-03-01T08:26:30;16.12;;;9.93;;
13847;SDS011;6994;49.752;6.094;2023-03-01T08:28:57;18.20;;;10.50;;
13847;SDS011;6994;49.752;6.094;2023-03-01T08:31:37;16.37;;;10.93;;
13847;SDS011;6994;49.752;6.094;2023-03-01T08:34:04;15.82;;;10.43;;
13847;SDS011;6994;49.752;6.094;2023-03-01T08:36:35;13.52;;;10.27;;
13847;SDS011;6994;49.752;6.094;2023-03-01T08:38:58;15.73;;;12.83;;
13847;SDS011;6994;49.752;6.094;2023-03-01T08:41:25;15.88;;;11.38;;
13847;SDS011;6994;49.752;6.094;2023-03-01T08:43:52;13.40;;;10.18;;
13847;SDS011;6994;49.752;6.094;2023-03-01T08:46:19;14.02;;;10.77;;
13847;SDS011;6994;49.752;6.094;2023-03-01T08:48:46;14.13;;;10.52;;
13847;SDS011;6994;49.752;6.094;2023-03-01T08:51:15;16.00;;;10.75;;
13847;SDS011;6994;49.752;6.094;2023-03-01T08:53:43;11.05;;;9.30;;
13847;SDS011;6994;49.752;6.094;2023-03-01T08:56:10;12.35;;;10.30;;
13847;SDS011;6994;49.752;6.094;2023-03-01T08:58:38;12.90;;;10.00;;
13847;SDS011;6994;49.752;6.094;2023-03-01T09:01:08;20.73;;;12.60;;
13847;SDS011;6994;49.752;6.094;2023-03-01T09:03:36;16.08;;;10.65;;
13847;SDS011;6994;49.752;6.094;2023-03-01T09:06:04;15.10;;;11.40;;
13847;SDS011;6994;49.752;6.094;2023-03-01T09:08:34;15.52;;;11.55;;
13847;SDS011;6994;49.752;6.094;2023-03-01T09:11:01;15.13;;;10.77;;
13847;SDS011;6994;49.752;6.094;2023-03-01T09:13:30;17.75;;;12.00;;
13847;SDS011;6994;49.752;6.094;2023-03-01T09:15:58;13.10;;;10.43;;
13847;SDS011;6994;49.752;6.094;2023-03-01T09:18:25;16.92;;;11.20;;
13847;SDS011;6994;49.752;6.094;2023-03-01T09:20:52;11.48;;;10.00;;
13847;SDS011;6994;49.752;6.094;2023-03-01T09:23:19;16.02;;;10.63;;
13847;SDS011;6994;49.752;6.094;2023-03-01T09:25:46;16.33;;;11.18;;
13847;SDS011;6994;49.752;6.094;2023-03-01T09:28:13;14.87;;;10.48;;
13847;SDS011;6994;49.752;6.094;2023-03-01T09:30:41;16.43;;;14.23;;
13847;SDS011;6994;49.752;6.094;2023-03-01T09:33:08;16.20;;;12.23;;
13847;SDS011;6994;49.752;6.094;2023-03-01T09:35:35;15.02;;;12.02;;
13847;SDS011;6994;49.752;6.094;2023-03-01T09:38:02;17.00;;;12.05;;
13847;SDS011;6994;49.752;6.094;2023-03-01T09:40:29;17.02;;;11.93;;
13847;SDS011;6994;49.752;6.094;2023-03-01T09:43:02;16.92;;;11.38;;
13847;SDS011;6994;49.752;6.094;2023-03-01T09:45:28;19.70;;;12.50;;
13847;SDS011;6994;49.752;6.094;2023-03-01T09:47:54;17.23;;;14.20;;
13847;SDS011;6994;49.752;6.094;2023-03-01T09:50:21;18.62;;;12.37;;
13847;SDS011;6994;49.752;6.094;2023-03-01T09:53:01;18.83;;;12.13;;
13847;SDS011;6994;49.752;6.094;2023-03-01T09:58:25;15.73;;;10.68;;
13847;SDS011;6994;49.752;6.094;2023-03-01T10:00:39;14.90;;;11.00;;
13847;SDS011;6994;49.752;6.094;2023-03-01T10:08:52;17.08;;;10.95;;
13847;SDS011;6994;49.752;6.094;2023-03-01T10:11:39;16.90;;;14.65;;
13847;SDS011;6994;49.752;6.094;2023-03-01T10:16:52;16.80;;;11.75;;
13847;SDS011;6994;49.752;6.094;2023-03-01T10:19:23;18.35;;;11.32;;
13847;SDS011;6994;49.752;6.094;2023-03-01T10:21:48;14.00;;;11.20;;
13847;SDS011;6994;49.752;6.094;2023-03-01T10:24:16;15.73;;;10.60;;
13847;SDS011;6994;49.752;6.094;2023-03-01T10:26:55;16.67;;;11.05;;
13847;SDS011;6994;49.752;6.094;2023-03-01T10:29:30;17.60;;;11.50;;
13847;SDS011;6994;49.752;6.094;2023-03-01T10:31:55;13.82;;;10.93;;
13847;SDS011;6994;49.752;6.094;2023-03-01T10:34:30;14.75;;;11.57;;
13847;SDS011;6994;49.752;6.094;2023-03-01T10:37:09;13.55;;;11.43;;
13847;SDS011;6994;49.752;6.094;2023-03-01T10:39:35;16.30;;;13.85;;
13847;SDS011;6994;49.752;6.094;2023-03-01T10:42:03;15.05;;;11.82;;
13847;SDS011;6994;49.752;6.094;2023-03-01T10:44:37;14.57;;;11.30;;
13847;SDS011;6994;49.752;6.094;2023-03-01T10:47:03;13.35;;;11.18;;
13847;SDS011;6994;49.752;6.094;2023-03-01T10:49:30;15.23;;;11.70;;
13847;SDS011;6994;49.752;6.094;2023-03-01T10:51:57;13.20;;;10.10;;
13847;SDS011;6994;49.752;6.094;2023-03-01T10:56:56;14.85;;;11.38;;
13847;SDS011;6994;49.752;6.094;2023-03-01T10:59:26;15.25;;;10.65;;
13847;SDS011;6994;49.752;6.094;2023-03-01T11:02:32;15.50;;;12.13;;
13847;SDS011;6994;49.752;6.094;2023-03-01T11:04:42;14.55;;;12.55;;
13847;SDS011;6994;49.752;6.094;2023-03-01T11:07:07;16.35;;;14.30;;
13847;SDS011;6994;49.752;6.094;2023-03-01T11:09:35;15.55;;;11.70;;
13847;SDS011;6994;49.752;6.094;2023-03-01T11:12:01;15.07;;;11.88;;
13847;SDS011;6994;49.752;6.094;2023-03-01T11:14:33;13.82;;;11.55;;
13847;SDS011;6994;49.752;6.094;2023-03-01T11:17:00;16.35;;;12.32;;
13847;SDS011;6994;49.752;6.094;2023-03-01T11:19:26;16.05;;;11.30;;
13847;SDS011;6994;49.752;6.094;2023-03-01T11:22:02;18.25;;;12.43;;
13847;SDS011;6994;49.752;6.094;2023-03-01T11:24:58;14.82;;;12.15;;
13847;SDS011;6994;49.752;6.094;2023-03-01T11:27:04;16.85;;;14.50;;
13847;SDS011;6994;49.752;6.094;2023-03-01T11:29:32;14.05;;;11.32;;
13847;SDS011;6994;49.752;6.094;2023-03-01T11:31:59;13.90;;;11.07;;
13847;SDS011;6994;49.752;6.094;2023-03-01T11:34:42;11.40;;;10.13;;
13847;SDS011;6994;49.752;6.094;2023-03-01T11:37:09;14.50;;;10.65;;
13847;SDS011;6994;49.752;6.094;2023-03-01T11:39:47;12.77;;;11.20;;
13847;SDS011;6994;49.752;6.094;2023-03-01T11:45:12;14.32;;;12.88;;
13847;SDS011;6994;49.752;6.094;2023-03-01T11:48:17;13.43;;;12.07;;
13847;SDS011;6994;49.752;6.094;2023-03-01T11:50:34;14.75;;;12.35;;
13847;SDS011;6994;49.752;6.094;2023-03-01T11:53:12;12.00;;;10.80;;
13847;SDS011;6994;49.752;6.094;2023-03-01T12:03:45;14.35;;;11.98;;
13847;SDS011;6994;49.752;6.094;2023-03-01T12:06:26;12.02;;;10.73;;
13847;SDS011;6994;49.752;6.094;2023-03-01T12:09:09;12.57;;;11.27;;
13847;SDS011;6994;49.752;6.094;2023-03-01T12:11:40;13.05;;;11.65;;
13847;SDS011;6994;49.752;6.094;2023-03-01T12:14:21;12.88;;;10.77;;
13847;SDS011;6994;49.752;6.094;2023-03-01T12:19:39;12.75;;;11.48;;
13847;SDS011;6994;49.752;6.094;2023-03-01T12:27:46;14.32;;;12.95;;
13847;SDS011;6994;49.752;6.094;2023-03-01T12:41:20;12.30;;;11.07;;
13847;SDS011;6994;49.752;6.094;2023-03-01T12:43:49;15.50;;;13.05;;
13847;SDS011;6994;49.752;6.094;2023-03-01T12:49:31;12.57;;;10.48;;
13847;SDS011;6994;49.752;6.094;2023-03-01T12:52:08;13.55;;;12.25;;
13847;SDS011;6994;49.752;6.094;2023-03-01T12:54:31;12.93;;;11.38;;
13847;SDS011;6994;49.752;6.094;2023-03-01T12:56:59;13.38;;;11.38;;
13847;SDS011;6994;49.752;6.094;2023-03-01T12:59:34;11.75;;;10.60;;
13847;SDS011;6994;49.752;6.094;2023-03-01T13:07:37;11.73;;;10.57;;
13847;SDS011;6994;49.752;6.094;2023-03-01T13:10:17;13.13;;;11.15;;
13847;SDS011;6994;49.752;6.094;2023-03-01T13:15:25;12.70;;;11.38;;
13847;SDS011;6994;49.752;6.094;2023-03-01T13:18:00;12.60;;;11.30;;
13847;SDS011;6994;49.752;6.094;2023-03-01T13:31:11;12.65;;;10.35;;
13847;SDS011;6994;49.752;6.094;2023-03-01T13:33:37;12.27;;;10.98;;
13847;SDS011;6994;49.752;6.094;2023-03-01T13:36:00;11.45;;;10.25;;
13847;SDS011;6994;49.752;6.094;2023-03-01T13:38:47;12.52;;;11.23;;
13847;SDS011;6994;49.752;6.094;2023-03-01T13:41:14;11.48;;;10.18;;
13847;SDS011;6994;49.752;6.094;2023-03-01T13:43:41;13.70;;;10.70;;
13847;SDS011;6994;49.752;6.094;2023-03-01T13:46:09;13.15;;;10.85;;
13847;SDS011;6994;49.752;6.094;2023-03-01T13:48:35;11.27;;;10.13;;
13847;SDS011;6994;49.752;6.094;2023-03-01T13:51:03;15.45;;;10.80;;
13847;SDS011;6994;49.752;6.094;2023-03-01T13:53:31;12.43;;;11.23;;
13847;SDS011;6994;49.752;6.094;2023-03-01T13:56:00;12.30;;;10.32;;
13847;SDS011;6994;49.752;6.094;2023-03-01T13:58:30;12.75;;;10.48;;
13847;SDS011;6994;49.752;6.094;2023-03-01T14:01:04;13.30;;;12.07;;
13847;SDS011;6994;49.752;6.094;2023-03-01T14:03:31;11.85;;;10.65;;
13847;SDS011;6994;49.752;6.094;2023-03-01T14:05:58;13.18;;;11.63;;
13847;SDS011;6994;49.752;6.094;2023-03-01T14:08:26;12.07;;;9.98;;
13847;SDS011;6994;49.752;6.094;2023-03-01T14:10:54;11.48;;;10.38;;
13847;SDS011;6994;49.752;6.094;2023-03-01T14:13:27;11.70;;;10.60;;
13847;SDS011;6994;49.752;6.094;2023-03-01T14:16:10;11.68;;;9.98;;
13847;SDS011;6994;49.752;6.094;2023-03-01T14:19:01;10.15;;;9.15;;
13847;SDS011;6994;49.752;6.094;2023-03-01T14:21:24;12.73;;;11.48;;
13847;SDS011;6994;49.752;6.094;2023-03-01T14:23:52;10.13;;;9.20;;
13847;SDS011;6994;49.752;6.094;2023-03-01T14:26:22;9.90;;;8.95;;
13847;SDS011;6994;49.752;6.094;2023-03-01T14:28:49;10.13;;;9.13;;
13847;SDS011;6994;49.752;6.094;2023-03-01T14:31:51;10.63;;;9.55;;
13847;SDS011;6994;49.752;6.094;2023-03-01T14:34:01;10.70;;;9.48;;
13847;SDS011;6994;49.752;6.094;2023-03-01T14:36:32;12.02;;;10.10;;
13847;SDS011;6994;49.752;6.094;2023-03-01T14:38:58;10.35;;;8.73;;
13847;SDS011;6994;49.752;6.094;2023-03-01T14:41:26;11.70;;;10.52;;
13847;SDS011;6994;49.752;6.094;2023-03-01T14:43:53;11.38;;;9.23;;
13847;SDS011;6994;49.752;6.094;2023-03-01T14:46:20;12.25;;;9.38;;
13847;SDS011;6994;49.752;6.094;2023-03-01T14:48:54;12.55;;;9.30;;
13847;SDS011;6994;49.752;6.094;2023-03-01T14:51:17;12.37;;;11.10;;
13847;SDS011;6994;49.752;6.094;2023-03-01T14:53:44;10.45;;;9.45;;
13847;SDS011;6994;49.752;6.094;2023-03-01T14:56:12;11.55;;;9.45;;
13847;SDS011;6994;49.752;6.094;2023-03-01T14:58:39;14.35;;;12.10;;
13847;SDS011;6994;49.752;6.094;2023-03-01T15:01:07;10.90;;;9.75;;
13847;SDS011;6994;49.752;6.094;2023-03-01T15:03:38;11.27;;;9.88;;
13847;SDS011;6994;49.752;6.094;2023-03-01T15:06:01;16.27;;;13.30;;
13847;SDS011;6994;49.752;6.094;2023-03-01T15:08:28;12.48;;;10.88;;
13847;SDS011;6994;49.752;6.094;2023-03-01T15:11:16;10.60;;;9.48;;
13847;SDS011;6994;49.752;6.094;2023-03-01T15:13:24;12.50;;;9.90;;
13847;SDS011;6994;49.752;6.094;2023-03-01T15:15:50;13.75;;;9.70;;
13847;SDS011;6994;49.752;6.094;2023-03-01T15:18:20;10.73;;;9.18;;
13847;SDS011;6994;49.752;6.094;2023-03-01T15:20:47;13.07;;;10.27;;
13847;SDS011;6994;49.752;6.094;2023-03-01T15:23:25;11.05;;;9.32;;
13847;SDS011;6994;49.752;6.094;2023-03-01T15:25:47;11.52;;;9.05;;
13847;SDS011;6994;49.752;6.094;2023-03-01T15:28:18;10.63;;;9.52;;
13847;SDS011;6994;49.752;6.094;2023-03-01T15:30:43;12.18;;;10.82;;
13847;SDS011;6994;49.752;6.094;2023-03-01T15:33:17;11.25;;;9.60;;
13847;SDS011;6994;49.752;6.094;2023-03-01T15:35:44;13.48;;;9.52;;
13847;SDS011;6994;49.752;6.094;2023-03-01T15:38:29;12.37;;;11.07;;
13847;SDS011;6994;49.752;6.094;2023-03-01T15:40:50;10.10;;;9.05;;
13847;SDS011;6994;49.752;6.094;2023-03-01T15:49:02;18.37;;;10.48;;
13847;SDS011;6994;49.752;6.094;2023-03-01T15:51:35;11.00;;;8.52;;
13847;SDS011;6994;49.752;6.094;2023-03-01T15:54:03;10.60;;;9.50;;
13847;SDS011;6994;49.752;6.094;2023-03-01T15:56:29;10.02;;;8.65;;
13847;SDS011;6994;49.752;6.094;2023-03-01T15:59:00;10.35;;;7.95;;
13847;SDS011;6994;49.752;6.094;2023-03-01T16:01:26;8.45;;;7.50;;
13847;SDS011;6994;49.752;6.094;2023-03-01T16:03:53;9.35;;;7.95;;
13847;SDS011;6994;49.752;6.094;2023-03-01T16:06:20;11.35;;;9.48;;
13847;SDS011;6994;49.752;6.094;2023-03-01T16:08:47;9.90;;;8.55;;
13847;SDS011;6994;49.752;6.094;2023-03-01T16:11:18;9.50;;;7.87;;
13847;SDS011;6994;49.752;6.094;2023-03-01T16:13:42;9.45;;;7.07;;